Time;durP1;ratioP1;P1;durP2;ratioP2;P2;SDS_P1;SDS_P2;PMS_P1;PMS_P2;Temp;Humidity;BMP_temperature;BMP_pressure;BME280_temperature;BME280_humidity;BME280_pressure;Samples;Min_cycle;Max_cycle;Signal;HPM_P1;HPM_P2
2022/08/18 00:02:07;;;;;;;27.67;24.55;;;20.50;95.40;;;;;;5055681;28;20029;-88
2022/08/18 00:04:37;;;;;;;32.35;25.90;;;20.50;95.40;;;;;;5053954;28;20025;-87
2022/08/18 00:07:05;;;;;;;29.58;26.33;;;20.50;95.50;;;;;;5053986;28;20025;-88
2022/08/18 00:09:32;;;;;;;31.75;25.33;;;20.50;95.50;;;;;;5037604;28;20477;-89
2022/08/18 00:11:57;;;;;;;29.65;26.58;;;20.40;95.50;;;;;;5037715;28;20057;-88
2022/08/18 00:14:23;;;;;;;27.95;25.05;;;20.40;95.60;;;;;;5037652;28;20512;-90
2022/08/18 00:16:52;;;;;;;31.05;24.80;;;20.30;95.60;;;;;;5020844;28;20029;-89
2022/08/18 00:19:17;;;;;;;28.45;25.10;;;20.30;95.70;;;;;;5053783;28;20037;-89
2022/08/18 00:21:43;;;;;;;25.95;23.20;;;20.30;95.70;;;;;;5037198;28;20029;-90
2022/08/18 00:24:09;;;;;;;30.48;25.42;;;20.30;95.90;;;;;;5037183;28;20036;-86
2022/08/18 00:26:35;;;;;;;27.73;24.25;;;20.30;95.90;;;;;;5037005;28;20029;-89
2022/08/18 00:29:00;;;;;;;28.55;24.52;;;20.30;96.00;;;;;;5053597;28;20040;-90
2022/08/18 00:31:26;;;;;;;27.05;24.05;;;20.20;96.00;;;;;;5054750;28;20025;-86
2022/08/18 00:33:52;;;;;;;27.70;24.08;;;20.40;96.10;;;;;;5037103;28;20119;-89
2022/08/18 00:36:18;;;;;;;30.25;24.50;;;20.30;96.10;;;;;;5053914;28;20017;-89
2022/08/18 00:38:43;;;;;;;27.48;24.42;;;20.30;96.40;;;;;;5053378;28;20053;-88
2022/08/18 00:41:09;;;;;;;27.30;23.35;;;20.30;96.10;;;;;;5053667;28;20040;-90
2022/08/18 00:43:50;;;;;;;27.85;23.63;;;20.30;96.10;;;;;;5036871;28;20063;-88
2022/08/18 00:46:28;;;;;;;25.88;22.63;;;20.40;96.20;;;;;;5055368;28;20020;-87
2022/08/18 00:48:55;;;;;;;23.35;20.25;;;20.40;96.20;;;;;;5053939;28;20075;-89
2022/08/18 00:51:32;;;;;;;26.95;21.95;;;20.40;96.30;;;;;;5054480;28;20461;-89
2022/08/18 00:54:22;;;;;;;26.90;22.20;;;20.40;96.30;;;;;;5053702;28;20080;-89
2022/08/18 00:56:57;;;;;;;27.65;22.60;;;20.40;96.20;;;;;;5046014;28;20045;-89
2022/08/18 00:59:44;;;;;;;24.60;21.48;;;20.40;96.20;;;;;;5054561;28;20075;-90
2022/08/18 01:02:25;;;;;;;24.65;21.70;;;20.40;96.20;;;;;;5053683;28;20032;-90
2022/08/18 01:05:20;;;;;;;27.38;21.05;;;20.40;96.10;;;;;;5054784;28;20347;-90
2022/08/18 01:07:47;;;;;;;22.58;19.70;;;20.30;96.00;;;;;;5053277;28;20055;-91
2022/08/18 01:10:16;;;;;;;23.27;20.15;;;20.30;96.00;;;;;;5053463;28;20021;-90
2022/08/18 01:12:48;;;;;;;21.77;18.17;;;20.20;96.00;;;;;;5054210;28;20094;-89
2022/08/18 01:15:15;;;;;;;21.00;17.38;;;20.20;96.00;;;;;;5053668;28;20094;-88
2022/08/18 01:23:22;;;;;;;20.95;16.65;;;20.20;96.00;;;;;;5053711;28;20483;-87
2022/08/18 01:26:00;;;;;;;18.25;16.35;;;20.20;96.00;;;;;;5035967;28;20021;-87
2022/08/18 01:28:41;;;;;;;23.33;17.98;;;20.20;96.00;;;;;;5053232;28;20455;-88
2022/08/18 01:31:08;;;;;;;23.80;18.83;;;20.20;96.00;;;;;;5052587;28;20392;-88
2022/08/18 01:33:41;;;;;;;21.45;18.30;;;20.20;96.00;;;;;;5052821;28;20376;-86
2022/08/18 01:36:18;;;;;;;24.10;18.90;;;20.20;96.00;;;;;;5052825;28;20372;-88
2022/08/18 01:38:46;;;;;;;21.80;17.50;;;20.20;96.00;;;;;;5052578;28;20041;-88
2022/08/18 01:41:12;;;;;;;21.15;17.45;;;20.20;96.10;;;;;;5052883;28;20021;-88
2022/08/18 01:43:38;;;;;;;20.15;16.92;;;20.20;96.10;;;;;;5052272;28;20377;-89
2022/08/18 01:46:05;;;;;;;18.48;16.00;;;20.10;96.10;;;;;;5019799;28;20029;-88
2022/08/18 01:48:33;;;;;;;18.83;15.57;;;20.10;96.10;;;;;;5036449;28;20028;-90
2022/08/18 01:51:00;;;;;;;19.98;15.25;;;20.10;96.10;;;;;;5052952;28;20064;-88
2022/08/18 01:53:26;;;;;;;18.15;14.55;;;20.10;96.10;;;;;;5052316;28;20029;-87
2022/08/18 01:55:52;;;;;;;18.35;15.05;;;20.00;96.00;;;;;;5052963;28;20485;-87
2022/08/18 01:58:18;;;;;;;15.75;14.05;;;20.00;96.00;;;;;;5038365;28;20122;-87
2022/08/18 02:00:43;;;;;;;16.50;14.45;;;20.00;96.10;;;;;;5053980;28;20025;-86
2022/08/18 02:03:13;;;;;;;15.05;12.75;;;20.00;96.10;;;;;;5056364;28;20052;-87
2022/08/18 02:05:45;;;;;;;15.80;14.10;;;20.00;96.10;;;;;;5057761;28;20100;-87
2022/08/18 02:08:11;;;;;;;15.50;12.98;;;20.10;96.10;;;;;;5053733;28;20029;-87
2022/08/18 02:10:38;;;;;;;17.15;13.00;;;20.10;96.10;;;;;;5053734;28;20105;-88
2022/08/18 02:13:05;;;;;;;16.30;12.90;;;20.10;96.00;;;;;;5055667;28;20013;-89
2022/08/18 02:15:31;;;;;;;18.00;13.95;;;20.10;96.00;;;;;;5054699;28;20503;-87
2022/08/18 02:17:57;;;;;;;14.52;12.95;;;20.10;95.90;;;;;;5037731;28;20028;-86
2022/08/18 02:20:23;;;;;;;15.70;12.25;;;20.10;95.90;;;;;;5038381;28;20021;-86
2022/08/18 02:22:49;;;;;;;15.63;12.43;;;20.10;95.80;;;;;;5057174;28;20119;-86
2022/08/18 02:25:16;;;;;;;13.85;10.95;;;20.10;95.80;;;;;;5056734;28;20029;-88
2022/08/18 02:27:43;;;;;;;16.00;13.15;;;20.10;95.80;;;;;;5056870;28;20040;-87
2022/08/18 02:30:13;;;;;;;16.33;12.27;;;20.00;95.70;;;;;;5039486;28;20025;-87
2022/08/18 02:32:39;;;;;;;17.77;13.52;;;20.00;95.70;;;;;;5055910;28;20116;-86
2022/08/18 02:35:06;;;;;;;17.15;12.40;;;20.00;95.70;;;;;;5055437;28;20155;-87
2022/08/18 02:37:32;;;;;;;15.55;12.63;;;20.00;95.70;;;;;;5055685;28;20017;-86
2022/08/18 02:39:58;;;;;;;16.67;12.13;;;20.00;95.70;;;;;;5056391;28;20389;-86
2022/08/18 02:42:24;;;;;;;16.50;12.50;;;19.90;95.70;;;;;;5055416;28;20087;-87
2022/08/18 02:44:50;;;;;;;15.73;13.68;;;19.90;95.80;;;;;;5056548;28;20108;-86
2022/08/18 02:47:19;;;;;;;19.48;14.20;;;19.80;95.80;;;;;;5056197;28;20045;-85
2022/08/18 02:49:45;;;;;;;17.48;13.40;;;19.90;95.90;;;;;;5055141;28;20075;-86
2022/08/18 02:52:11;;;;;;;14.57;12.27;;;19.80;95.80;;;;;;5038513;28;20057;-86
2022/08/18 02:54:36;;;;;;;13.18;11.57;;;19.70;95.80;;;;;;5055857;28;20374;-89
2022/08/18 02:57:09;;;;;;;14.68;11.70;;;19.80;95.80;;;;;;5056099;28;20025;-88
2022/08/18 02:59:37;;;;;;;14.65;12.63;;;19.80;95.90;;;;;;5055645;28;20032;-89
2022/08/18 03:02:04;;;;;;;15.57;10.82;;;19.80;96.00;;;;;;5055776;28;20091;-88
2022/08/18 03:04:30;;;;;;;16.52;12.27;;;19.70;95.90;;;;;;5038424;28;20401;-87
2022/08/18 03:06:57;;;;;;;14.05;11.85;;;19.70;95.90;;;;;;5054932;28;20025;-87
2022/08/18 03:09:23;;;;;;;12.95;10.75;;;19.80;95.90;;;;;;5056206;28;20409;-87
2022/08/18 03:11:48;;;;;;;13.68;10.55;;;19.80;95.90;;;;;;5038313;28;20087;-87
2022/08/18 03:14:15;;;;;;;15.60;11.85;;;19.80;95.90;;;;;;5054802;28;20374;-87
2022/08/18 03:16:44;;;;;;;11.95;10.38;;;19.80;95.90;;;;;;5022248;28;20079;-86
2022/08/18 03:19:15;;;;;;;14.80;10.68;;;19.80;95.90;;;;;;5054937;28;20467;-87
2022/08/18 03:21:41;;;;;;;14.15;10.68;;;19.80;95.90;;;;;;5055794;28;20047;-87
2022/08/18 03:24:07;;;;;;;12.88;10.10;;;19.80;95.90;;;;;;5054641;28;20094;-87
2022/08/18 03:26:33;;;;;;;12.02;10.10;;;19.90;95.90;;;;;;5037603;28;20021;-87
2022/08/18 03:29:00;;;;;;;13.02;10.40;;;19.90;96.00;;;;;;5056106;28;20017;-88
2022/08/18 03:31:28;;;;;;;13.20;10.35;;;19.90;95.90;;;;;;5054695;28;20064;-89
2022/08/18 03:33:55;;;;;;;13.05;9.60;;;19.90;95.80;;;;;;5054484;28;20488;-89
2022/08/18 03:36:23;;;;;;;13.65;9.40;;;19.90;95.80;;;;;;5054867;28;20032;-87
2022/08/18 03:38:51;;;;;;;11.82;10.18;;;19.90;95.70;;;;;;5055440;28;20124;-85
2022/08/18 03:41:21;;;;;;;12.25;9.63;;;19.90;95.70;;;;;;5055957;28;20108;-88
2022/08/18 03:43:47;;;;;;;12.05;9.68;;;19.90;95.70;;;;;;5054424;28;20060;-88
2022/08/18 03:46:14;;;;;;;11.73;9.70;;;19.90;95.70;;;;;;5037805;28;20036;-88
2022/08/18 03:48:42;;;;;;;14.30;10.90;;;19.90;95.60;;;;;;5054078;28;20048;-88
2022/08/18 03:51:13;;;;;;;11.38;9.55;;;19.90;95.60;;;;;;5055786;28;20579;-87
2022/08/18 03:53:39;;;;;;;15.30;9.70;;;19.90;95.60;;;;;;5054434;28;20024;-88
2022/08/18 03:56:14;;;;;;;13.90;9.88;;;19.90;95.60;;;;;;5054623;28;20102;-87
2022/08/18 03:58:48;;;;;;;17.42;10.93;;;19.90;95.60;;;;;;5038851;28;20033;-88
2022/08/18 04:01:15;;;;;;;;;;;19.80;95.50;;;;;;5054573;28;20082;-89
2022/08/18 04:03:45;;;;;;;13.07;9.40;;;19.80;95.50;;;;;;5054455;28;19911;-87
2022/08/18 04:06:21;;;;;;;13.00;9.68;;;19.80;95.50;;;;;;5053996;28;20041;-89
2022/08/18 04:08:49;;;;;;;13.23;9.68;;;19.80;95.50;;;;;;5055116;28;20025;-88
2022/08/18 04:11:16;;;;;;;11.93;9.43;;;19.80;95.60;;;;;;5056500;28;20044;-85
2022/08/18 04:13:41;;;;;;;13.23;9.52;;;19.80;95.60;;;;;;5068013;28;20035;-87
2022/08/18 04:16:07;;;;;;;15.90;10.45;;;19.80;95.60;;;;;;5055598;28;20107;-90
2022/08/18 04:18:33;;;;;;;16.95;10.70;;;19.80;95.60;;;;;;5073443;28;20036;-89
2022/08/18 04:21:07;;;;;;;15.02;10.57;;;19.80;95.70;;;;;;5072067;28;20431;-87
2022/08/18 04:23:42;;;;;;;17.50;11.13;;;19.80;95.70;;;;;;5072963;28;20016;-89
2022/08/18 04:26:10;;;;;;;21.05;10.98;;;19.70;95.70;;;;;;5072505;28;20025;-87
2022/08/18 04:28:36;;;;;;;15.70;12.15;;;19.70;95.80;;;;;;5072487;28;20135;-81
2022/08/18 04:31:07;;;;;;;13.88;10.07;;;19.70;95.90;;;;;;5071471;28;20028;-81
2022/08/18 04:33:32;;;;;;;13.52;10.65;;;19.60;96.00;;;;;;5072552;28;20453;-82
2022/08/18 04:36:01;;;;;;;14.98;10.65;;;19.70;96.10;;;;;;5072461;28;20071;-81
2022/08/18 04:38:27;;;;;;;13.48;10.63;;;19.60;96.10;;;;;;5072394;28;20822;-81
2022/08/18 04:40:52;;;;;;;13.35;10.93;;;19.60;96.20;;;;;;5072153;28;20027;-81
2022/08/18 04:43:18;;;;;;;16.55;11.40;;;19.60;96.20;;;;;;5047435;28;20021;-81
2022/08/18 04:45:44;;;;;;;15.82;12.18;;;19.60;96.30;;;;;;5052124;28;20482;-81
2022/08/18 04:48:11;;;;;;;17.70;13.20;;;19.60;96.30;;;;;;5035459;28;20040;-82
2022/08/18 04:50:37;;;;;;;15.77;13.05;;;19.60;96.40;;;;;;5053539;28;20074;-81
2022/08/18 04:55:50;;;;;;;15.35;13.43;;;19.60;96.60;;;;;;5071806;28;20155;-81
2022/08/18 04:58:17;;;;;;;18.70;14.45;;;19.70;96.60;;;;;;5055715;28;20131;-81
2022/08/18 05:00:44;;;;;;;18.52;15.48;;;19.70;96.70;;;;;;5071974;28;20021;-82
2022/08/18 05:03:10;;;;;;;19.35;15.80;;;19.70;96.80;;;;;;5055469;28;20032;-82
2022/08/18 05:05:36;;;;;;;19.00;14.13;;;19.70;96.80;;;;;;5055484;28;20029;-81
2022/08/18 05:08:01;;;;;;;17.55;14.65;;;19.70;96.80;;;;;;5071777;28;20024;-81
2022/08/18 05:10:27;;;;;;;19.55;15.48;;;19.70;96.90;;;;;;5055220;28;20491;-81
2022/08/18 05:12:53;;;;;;;20.45;15.13;;;19.70;96.90;;;;;;5055539;28;20093;-82
2022/08/18 05:15:19;;;;;;;22.90;16.65;;;19.70;96.90;;;;;;5071982;28;20114;-82
2022/08/18 05:17:45;;;;;;;18.38;16.17;;;19.60;97.10;;;;;;5055224;28;20020;-82
2022/08/18 05:20:11;;;;;;;21.90;17.20;;;19.60;97.20;;;;;;5071532;28;20045;-81
2022/08/18 05:22:42;;;;;;;18.65;14.88;;;19.60;97.30;;;;;;5073026;28;20056;-81
2022/08/18 05:25:09;;;;;;;24.55;15.77;;;19.60;97.40;;;;;;5071347;28;20035;-82
2022/08/18 05:27:38;;;;;;;20.20;16.05;;;19.60;97.40;;;;;;5072674;28;20020;-82
2022/08/18 05:30:06;;;;;;;17.60;14.32;;;19.60;97.50;;;;;;5071379;28;20020;-82
2022/08/18 05:32:41;;;;;;;22.17;15.00;;;19.50;97.50;;;;;;5071693;28;20025;-82
2022/08/18 05:35:13;;;;;;;21.05;15.30;;;19.50;97.60;;;;;;5071712;28;20024;-82
2022/08/18 05:38:14;;;;;;;22.73;15.17;;;19.50;97.90;;;;;;5071756;28;20017;-81
2022/08/18 05:40:41;;;;;;;20.13;14.20;;;19.50;97.60;;;;;;5071194;28;20046;-81
2022/08/18 05:43:08;;;;;;;15.48;12.85;;;19.50;97.60;;;;;;5071613;28;20032;-81
2022/08/18 05:45:34;;;;;;;16.95;12.55;;;19.50;97.60;;;;;;5071593;28;20054;-81
2022/08/18 05:48:00;;;;;;;17.02;12.35;;;19.50;97.70;;;;;;5072038;28;20112;-82
2022/08/18 05:50:28;;;;;;;15.63;12.32;;;19.50;97.70;;;;;;5054912;28;20380;-81
2022/08/18 05:53:13;;;;;;;15.70;12.45;;;19.50;97.80;;;;;;5072694;28;20115;-82
2022/08/18 05:58:42;;;;;;;16.00;10.45;;;19.60;97.90;;;;;;5076452;28;20582;-80
2022/08/18 06:01:17;;;;;;;14.27;11.45;;;19.70;97.90;;;;;;5077094;28;20024;-80
2022/08/18 06:03:55;;;;;;;15.60;11.05;;;19.70;97.90;;;;;;5076563;28;20056;-79
2022/08/18 06:06:26;;;;;;;14.13;11.25;;;19.70;98.00;;;;;;5076142;28;20413;-80
2022/08/18 06:09:15;;;;;;;13.98;10.25;;;19.70;98.00;;;;;;5077129;28;20028;-80
2022/08/18 06:11:41;;;;;;;18.70;11.25;;;19.80;98.10;;;;;;5076897;28;20028;-80
2022/08/18 06:14:06;;;;;;;16.63;10.63;;;19.90;98.10;;;;;;5059089;28;20069;-80
2022/08/18 06:16:38;;;;;;;14.40;11.10;;;19.90;98.10;;;;;;5058498;28;20429;-80
2022/08/18 06:19:09;;;;;;;14.35;11.45;;;19.90;98.00;;;;;;5075000;28;20047;-80
2022/08/18 06:21:58;;;;;;;17.23;11.45;;;20.00;98.00;;;;;;5076762;28;20035;-86
2022/08/18 06:24:42;;;;;;;13.77;11.10;;;20.00;98.00;;;;;;5074559;28;20046;-86
2022/08/18 06:27:20;;;;;;;14.82;10.75;;;20.10;98.00;;;;;;5073802;28;20501;-87
2022/08/18 06:30:17;;;;;;;12.75;10.40;;;20.10;97.90;;;;;;5076590;28;20052;-87
2022/08/18 06:32:52;;;;;;;11.95;9.85;;;20.20;97.90;;;;;;5092724;28;20017;-87
2022/08/18 06:35:43;;;;;;;14.00;11.27;;;20.20;97.70;;;;;;5076931;28;20028;-85
2022/08/18 06:38:46;;;;;;;14.38;12.10;;;20.20;97.60;;;;;;5076700;28;20078;-87
2022/08/18 06:41:38;;;;;;;13.60;11.52;;;20.20;97.50;;;;;;5076733;28;20021;-87
2022/08/18 06:44:08;;;;;;;14.50;10.20;;;20.20;97.50;;;;;;5072431;28;20032;-87
2022/08/18 06:46:34;;;;;;;13.30;11.18;;;20.20;97.40;;;;;;5091974;28;20028;-87
2022/08/18 06:49:04;;;;;;;13.85;11.90;;;20.20;97.40;;;;;;5091259;28;20082;-87
2022/08/18 06:51:30;;;;;;;13.77;10.30;;;20.20;97.40;;;;;;5092507;28;20025;-89
2022/08/18 06:53:59;;;;;;;15.05;11.13;;;20.20;97.30;;;;;;5092160;28;20079;-85
2022/08/18 06:56:44;;;;;;;14.05;10.88;;;20.20;97.30;;;;;;5091681;28;20044;-87
2022/08/18 06:59:22;;;;;;;14.05;9.43;;;20.20;97.30;;;;;;5092657;28;20032;-85
2022/08/18 07:01:55;;;;;;;11.13;9.15;;;20.20;97.20;;;;;;5074673;28;20069;-91
2022/08/18 07:04:37;;;;;;;14.13;9.95;;;20.20;97.20;;;;;;5074818;28;20013;-88
2022/08/18 07:07:13;;;;;;;13.15;8.80;;;20.30;97.20;;;;;;5074791;28;20031;-87
2022/08/18 07:09:39;;;;;;;10.13;8.30;;;20.30;97.20;;;;;;5057870;28;20028;-88
2022/08/18 07:12:07;;;;;;;11.32;8.77;;;20.30;97.10;;;;;;5058534;28;20429;-89
2022/08/18 07:14:49;;;;;;;10.82;8.18;;;20.40;97.20;;;;;;5074875;28;20021;-87
2022/08/18 07:17:41;;;;;;;11.68;7.50;;;20.50;97.30;;;;;;5074452;28;20020;-86
2022/08/18 07:20:18;;;;;;;12.15;7.47;;;20.60;97.20;;;;;;5073713;28;20523;-86
2022/08/18 07:23:02;;;;;;;7.88;6.40;;;20.60;97.10;;;;;;5074245;28;20128;-86
2022/08/18 07:25:38;;;;;;;10.25;6.13;;;20.70;97.00;;;;;;5073706;28;20031;-86
2022/08/18 07:28:04;;;;;;;9.60;5.90;;;20.80;96.90;;;;;;5074242;28;20029;-87
2022/08/18 07:30:35;;;;;;;8.73;6.28;;;20.80;96.70;;;;;;5057431;28;20021;-83
2022/08/18 07:33:14;;;;;;;9.55;5.72;;;20.90;96.60;;;;;;5073882;28;20070;-83
2022/08/18 07:36:05;;;;;;;8.57;5.38;;;20.90;96.30;;;;;;5073977;28;20453;-86
2022/08/18 07:38:44;;;;;;;7.38;5.72;;;20.90;96.10;;;;;;5073805;28;20031;-85
2022/08/18 07:41:14;;;;;;;9.20;5.80;;;21.00;96.00;;;;;;5074045;28;20404;-82
2022/08/18 07:44:15;;;;;;;7.40;5.38;;;21.00;95.90;;;;;;5057853;28;20119;-84
2022/08/18 07:46:49;;;;;;;7.68;6.30;;;21.00;95.80;;;;;;5074245;28;20384;-83
2022/08/18 07:49:30;;;;;;;9.20;5.65;;;21.00;95.70;;;;;;5056603;28;20040;-91
2022/08/18 07:52:10;;;;;;;8.35;4.97;;;21.00;95.60;;;;;;5054934;28;20056;-90
2022/08/18 07:54:54;;;;;;;8.50;5.60;;;21.00;95.50;;;;;;5054240;28;20041;-90
2022/08/18 07:57:37;;;;;;;5.95;5.15;;;21.10;95.40;;;;;;5055463;28;20028;-87
2022/08/18 08:00:31;;;;;;;12.32;5.20;;;21.10;95.40;;;;;;5057665;28;20037;-91
2022/08/18 08:03:38;;;;;;;10.18;4.90;;;21.10;95.20;;;;;;5055567;28;20024;-89
2022/08/18 08:06:29;;;;;;;7.90;4.57;;;21.20;95.20;;;;;;5055886;28;20371;-89
2022/08/18 08:09:13;;;;;;;6.72;4.07;;;21.30;95.00;;;;;;5056332;28;20032;-87
2022/08/18 08:11:53;;;;;;;14.18;5.70;;;21.30;94.90;;;;;;5057677;28;20036;-89
2022/08/18 08:14:41;;;;;;;6.80;4.60;;;21.40;94.80;;;;;;5052250;28;20052;-88
2022/08/18 08:17:16;;;;;;;7.63;4.65;;;21.50;94.60;;;;;;5054674;28;20104;-88
2022/08/18 08:20:19;;;;;;;9.23;5.00;;;21.60;94.50;;;;;;5053390;28;20449;-88
2022/08/18 08:22:57;;;;;;;6.68;4.47;;;21.70;94.40;;;;;;5055148;28;20029;-89
2022/08/18 08:25:47;;;;;;;7.38;4.03;;;21.80;94.30;;;;;;5055237;28;20021;-87
2022/08/18 08:28:54;;;;;;;6.03;3.60;;;21.90;94.10;;;;;;5055672;28;20051;-91
2022/08/18 08:31:28;;;;;;;5.55;3.92;;;22.00;93.90;;;;;;5056327;28;20029;-89
2022/08/18 08:34:08;;;;;;;7.00;4.18;;;22.10;93.50;;;;;;5055977;28;20033;-89
2022/08/18 08:36:38;;;;;;;5.88;3.58;;;22.20;93.00;;;;;;5055035;28;20032;-89
2022/08/18 08:39:09;;;;;;;7.25;4.50;;;22.40;92.90;;;;;;5053744;28;20091;-88
2022/08/18 08:42:11;;;;;;;8.57;4.22;;;22.50;92.60;;;;;;5053902;28;20029;-87
2022/08/18 08:44:49;;;;;;;8.07;4.25;;;22.60;92.20;;;;;;5052784;28;20108;-87
2022/08/18 08:47:38;;;;;;;7.07;3.90;;;22.80;92.00;;;;;;5053856;28;20025;-89
2022/08/18 08:50:14;;;;;;;6.80;3.67;;;22.80;91.40;;;;;;5054347;28;20021;-89
2022/08/18 08:52:50;;;;;;;5.35;3.58;;;22.80;91.30;;;;;;5071480;28;20482;-88
2022/08/18 08:55:40;;;;;;;4.85;2.60;;;22.70;90.70;;;;;;5072196;28;20045;-87
2022/08/18 08:58:18;;;;;;;3.95;2.78;;;22.70;90.60;;;;;;5073935;28;20033;-89
2022/08/18 09:00:45;;;;;;;4.10;2.67;;;22.90;90.60;;;;;;5090058;28;20024;-90
2022/08/18 09:03:17;;;;;;;6.30;2.95;;;22.90;90.40;;;;;;5089886;28;20086;-88
2022/08/18 09:05:55;;;;;;;5.57;3.15;;;23.10;90.10;;;;;;5074115;28;20044;-88
2022/08/18 09:08:39;;;;;;;6.80;3.28;;;23.20;89.70;;;;;;5077163;28;20376;-88
2022/08/18 09:11:04;;;;;;;;;;;23.30;89.30;;;;;;5089858;28;20020;-88
2022/08/18 09:13:51;;;;;;;5.13;3.72;;;23.30;88.60;;;;;;5073315;28;19949;-90
2022/08/18 09:16:58;;;;;;;5.32;3.47;;;23.30;88.30;;;;;;5074787;28;20032;-89
2022/08/18 09:19:48;;;;;;;5.57;3.33;;;23.40;88.20;;;;;;5051238;28;20472;-90
2022/08/18 09:22:34;;;;;;;6.90;3.72;;;23.50;87.80;;;;;;5090475;28;20097;-89
2022/08/18 09:25:00;;;;;;;4.75;3.00;;;23.50;87.30;;;;;;5074203;28;20074;-89
2022/08/18 09:27:40;;;;;;;7.93;3.88;;;23.60;87.10;;;;;;5089725;28;20472;-89
2022/08/18 09:30:10;;;;;;;6.28;3.33;;;23.60;86.80;;;;;;5088376;28;20024;-87
2022/08/18 09:32:51;;;;;;;5.15;3.10;;;23.80;86.90;;;;;;5072908;28;20021;-87
2022/08/18 09:35:41;;;;;;;6.10;2.63;;;24.00;86.30;;;;;;5073649;28;20461;-87
2022/08/18 09:41:31;;;;;;;5.57;2.65;;;24.40;85.50;;;;;;5073727;28;20575;-88
2022/08/18 09:44:10;;;;;;;3.80;2.00;;;24.50;84.70;;;;;;5089162;28;20028;-88
2022/08/18 09:46:42;;;;;;;5.00;1.98;;;24.60;83.90;;;;;;5088851;28;20074;-88
2022/08/18 09:49:25;;;;;;;3.17;1.90;;;24.60;82.20;;;;;;5089596;28;20112;-89
2022/08/18 09:51:55;;;;;;;4.65;2.50;;;24.70;81.50;;;;;;5073436;28;20024;-87
2022/08/18 09:54:26;;;;;;;4.57;2.70;;;24.70;81.30;;;;;;5073429;28;20049;-88
2022/08/18 09:57:16;;;;;;;4.72;2.38;;;24.80;81.00;;;;;;5089147;28;20028;-85
2022/08/18 09:59:44;;;;;;;7.18;2.40;;;24.80;80.60;;;;;;5089756;28;20033;-89
2022/08/18 10:02:26;;;;;;;4.35;2.47;;;24.90;80.00;;;;;;5089642;28;20024;-87
2022/08/18 10:05:14;;;;;;;5.13;2.28;;;25.00;78.90;;;;;;5089542;28;20111;-87
2022/08/18 10:07:54;;;;;;;5.53;3.05;;;25.00;78.20;;;;;;5089385;28;20040;-88
2022/08/18 10:10:44;;;;;;;5.10;2.47;;;24.90;78.00;;;;;;5089335;28;20392;-88
2022/08/18 10:13:15;;;;;;;4.43;2.10;;;24.90;77.90;;;;;;5073366;28;20403;-88
2022/08/18 10:16:14;;;;;;;3.85;2.22;;;24.90;77.70;;;;;;5088553;28;20116;-86
2022/08/18 10:18:59;;;;;;;3.30;2.00;;;25.10;77.50;;;;;;5088308;28;20041;-88
2022/08/18 10:21:27;;;;;;;6.07;2.40;;;25.30;77.60;;;;;;5088762;28;20021;-87
2022/08/18 10:24:05;;;;;;;6.15;1.95;;;25.60;77.40;;;;;;5089204;28;20040;-87
2022/08/18 10:26:30;;;;;;;5.82;1.67;;;25.80;76.30;;;;;;5088368;28;20120;-87
2022/08/18 10:29:00;;;;;;;4.85;1.88;;;25.90;75.90;;;;;;5073137;28;20059;-87
2022/08/18 10:31:27;;;;;;;4.28;1.90;;;26.00;75.50;;;;;;5089723;28;20386;-89
2022/08/18 10:34:09;;;;;;;4.30;1.70;;;26.00;75.20;;;;;;5088896;28;20112;-88
2022/08/18 10:36:49;;;;;;;2.50;1.45;;;26.00;75.00;;;;;;5088840;28;20055;-88
2022/08/18 10:39:19;;;;;;;4.80;2.00;;;26.10;75.00;;;;;;5072804;28;20167;-89
2022/08/18 10:41:55;;;;;;;3.95;2.10;;;26.20;75.10;;;;;;5091626;28;20024;-84
2022/08/18 10:44:22;;;;;;;3.72;1.80;;;26.30;74.70;;;;;;5088407;28;20388;-84
2022/08/18 10:46:48;;;;;;;3.17;1.70;;;26.70;75.20;;;;;;5076083;28;20021;-84
2022/08/18 10:49:23;;;;;;;3.90;1.70;;;27.00;74.60;;;;;;5074332;28;20080;-84
2022/08/18 10:52:12;;;;;;;3.92;1.83;;;27.10;73.80;;;;;;5074512;28;20091;-86
2022/08/18 10:54:53;;;;;;;3.50;1.30;;;27.20;73.10;;;;;;5075535;28;20070;-82
2022/08/18 10:57:30;;;;;;;4.50;2.00;;;27.40;72.90;;;;;;5074069;28;20067;-84
2022/08/18 11:00:10;;;;;;;3.72;1.80;;;27.50;71.70;;;;;;5075703;28;20036;-86
2022/08/18 11:02:51;;;;;;;3.72;1.92;;;27.60;71.20;;;;;;5074216;28;20028;-85
2022/08/18 11:05:23;;;;;;;3.40;1.73;;;27.60;70.60;;;;;;5075352;28;20029;-83
2022/08/18 11:07:53;;;;;;;5.22;2.08;;;27.60;70.10;;;;;;5076850;28;20042;-91
2022/08/18 11:10:23;;;;;;;2.63;1.30;;;27.60;69.60;;;;;;5075184;28;20031;-92
2022/08/18 11:13:02;;;;;;;3.30;1.75;;;27.50;69.20;;;;;;5076574;28;20100;-90
2022/08/18 11:15:52;;;;;;;3.88;1.85;;;27.50;69.00;;;;;;5076824;28;20103;-89
2022/08/18 11:18:57;;;;;;;2.90;1.52;;;27.40;69.00;;;;;;5076355;28;20074;-87
2022/08/18 11:21:41;;;;;;;3.85;1.50;;;27.40;69.20;;;;;;5066085;28;20039;-82
2022/08/18 11:24:19;;;;;;;4.20;1.73;;;27.30;69.20;;;;;;5077643;28;20024;-84
2022/08/18 11:26:51;;;;;;;3.60;1.95;;;27.20;69.10;;;;;;5078508;28;20074;-83
2022/08/18 11:29:35;;;;;;;6.28;2.70;;;27.20;69.30;;;;;;5081033;28;20016;-88
2022/08/18 11:32:29;;;;;;;4.25;1.77;;;27.20;69.20;;;;;;5076803;28;20075;-92
2022/08/18 11:34:58;;;;;;;;;;;27.20;69.00;;;;;;5079387;28;20033;-88
2022/08/18 11:37:29;;;;;;;3.20;1.75;;;27.20;69.20;;;;;;5076495;28;19950;-85
2022/08/18 11:39:58;;;;;;;3.10;2.03;;;27.20;69.40;;;;;;5082250;28;20037;-87
2022/08/18 11:42:31;;;;;;;4.90;2.28;;;27.30;69.70;;;;;;5084960;28;20041;-87
2022/08/18 11:45:18;;;;;;;4.55;2.33;;;27.40;69.80;;;;;;5076448;28;20024;-85
2022/08/18 11:48:21;;;;;;;4.07;2.33;;;27.50;69.50;;;;;;5075257;28;20123;-85
2022/08/18 11:51:00;;;;;;;3.30;1.80;;;27.50;69.00;;;;;;5074365;28;20029;-82
2022/08/18 11:53:32;;;;;;;4.22;2.22;;;27.60;68.90;;;;;;5072637;28;20089;-82
2022/08/18 11:56:10;;;;;;;3.88;2.35;;;27.50;68.80;;;;;;5073213;28;20060;-82
2022/08/18 11:59:03;;;;;;;5.38;2.45;;;27.50;68.60;;;;;;5072856;28;20071;-82
2022/08/18 12:01:48;;;;;;;6.80;2.10;;;27.50;68.50;;;;;;5073071;28;20028;-81
2022/08/18 12:04:29;;;;;;;4.68;2.70;;;27.40;68.50;;;;;;5074372;28;20426;-82
2022/08/18 12:06:55;;;;;;;5.20;2.38;;;27.30;68.30;;;;;;5072870;28;20063;-81
2022/08/18 12:09:42;;;;;;;4.78;2.78;;;27.10;68.20;;;;;;5073299;28;20590;-81
2022/08/18 12:12:22;;;;;;;4.72;2.42;;;27.00;68.40;;;;;;5068194;28;20581;-81
2022/08/18 12:14:58;;;;;;;4.80;2.55;;;26.80;68.50;;;;;;5072519;28;20025;-81
2022/08/18 12:17:26;;;;;;;4.47;2.45;;;26.70;68.70;;;;;;5072595;28;20033;-87
2022/08/18 12:19:52;;;;;;;5.05;2.80;;;26.60;69.10;;;;;;5055114;28;20040;-83
2022/08/18 12:22:21;;;;;;;5.43;2.92;;;26.50;69.70;;;;;;5072739;28;20016;-84
2022/08/18 12:24:48;;;;;;;5.07;3.38;;;26.40;70.20;;;;;;5073441;28;20024;-86
2022/08/18 12:27:17;;;;;;;7.90;3.75;;;26.20;70.40;;;;;;5072239;28;20069;-87
2022/08/18 12:29:42;;;;;;;5.45;3.25;;;26.10;70.90;;;;;;5072727;28;20423;-85
2022/08/18 12:32:09;;;;;;;5.63;3.17;;;26.00;71.30;;;;;;5073171;28;20078;-87
2022/08/18 12:34:35;;;;;;;5.57;3.28;;;25.90;71.90;;;;;;5072318;28;20024;-83
2022/08/18 12:37:01;;;;;;;5.65;3.47;;;25.80;72.60;;;;;;5055881;28;20033;-84
2022/08/18 12:39:28;;;;;;;4.65;2.60;;;25.80;72.90;;;;;;5074238;28;20048;-85
2022/08/18 12:41:54;;;;;;;7.30;3.33;;;25.70;73.20;;;;;;5056380;28;20040;-88
2022/08/18 12:44:20;;;;;;;5.72;3.38;;;25.60;73.80;;;;;;5055894;28;20036;-88
2022/08/18 12:46:47;;;;;;;5.43;2.90;;;25.60;74.20;;;;;;5073359;28;20037;-88
2022/08/18 12:49:19;;;;;;;7.50;3.38;;;25.60;74.60;;;;;;5072472;28;20490;-87
2022/08/18 12:51:45;;;;;;;6.25;3.28;;;25.60;74.90;;;;;;5074712;28;20376;-88
2022/08/18 12:54:11;;;;;;;6.10;3.45;;;25.60;75.00;;;;;;5072486;28;20108;-85
2022/08/18 12:56:40;;;;;;;4.55;2.85;;;25.70;75.10;;;;;;5072584;28;20025;-88
2022/08/18 12:59:07;;;;;;;6.25;3.67;;;25.70;75.10;;;;;;5072861;28;20036;-88
2022/08/18 13:01:34;;;;;;;8.32;4.22;;;25.70;75.20;;;;;;5072606;28;20016;-88
2022/08/18 13:04:00;;;;;;;8.00;3.65;;;25.80;75.10;;;;;;5072382;28;20034;-88
2022/08/18 13:06:26;;;;;;;5.82;3.55;;;25.80;74.90;;;;;;5055920;28;20024;-88
2022/08/18 13:08:54;;;;;;;7.22;3.30;;;25.80;74.70;;;;;;5073489;28;20066;-88
2022/08/18 13:11:20;;;;;;;5.15;3.40;;;25.90;74.80;;;;;;5056525;28;20043;-87
2022/08/18 13:13:47;;;;;;;6.32;3.88;;;25.90;74.80;;;;;;5072335;28;20016;-88
2022/08/18 13:16:13;;;;;;;5.10;3.22;;;25.90;75.00;;;;;;5072441;28;20055;-86
2022/08/18 13:18:43;;;;;;;7.03;3.15;;;26.00;75.10;;;;;;5055881;28;20029;-88
2022/08/18 13:21:11;;;;;;;6.18;3.05;;;26.20;75.10;;;;;;5072753;28;20025;-87
2022/08/18 13:23:37;;;;;;;5.63;3.35;;;26.30;74.50;;;;;;5073466;28;20414;-88
2022/08/18 13:26:05;;;;;;;5.72;2.70;;;26.40;73.90;;;;;;5055480;28;20024;-88